createdAt,value
2019-06-10T00:01:08.778Z,3.97
2019-06-10T00:06:20.983Z,4.20
2019-06-10T00:11:28.060Z,4.40
2019-06-10T00:16:33.507Z,3.90
2019-06-10T00:21:41.235Z,4.27
2019-06-10T00:26:46.091Z,4.47
2019-06-10T00:31:51.495Z,5.17
2019-06-10T00:36:56.947Z,5.37
2019-06-10T00:42:06.332Z,4.87
2019-06-10T00:47:14.743Z,4.67
2019-06-10T00:52:17.456Z,5.70
2019-06-10T00:57:22.908Z,5.30
2019-06-10T01:02:28.360Z,4.43
2019-06-10T01:07:33.762Z,4.73
2019-06-10T01:12:40.803Z,4.20
2019-06-10T01:17:46.254Z,4.23
2019-06-10T01:22:51.635Z,4.50
2019-06-10T01:27:57.180Z,4.70
2019-06-10T01:33:04.228Z,4.47
2019-06-10T01:38:13.044Z,4.23
2019-06-10T01:43:18.387Z,4.73
2019-06-10T01:48:40.206Z,4.97
2019-06-10T01:53:32.569Z,4.63
2019-06-10T01:58:38.075Z,5.10
2019-06-10T02:03:44.865Z,5.30
2019-06-10T02:08:54.317Z,5.87
2019-06-10T02:14:00.902Z,5.47
2019-06-10T02:19:06.831Z,5.50
2019-06-10T02:24:14.355Z,6.40
2019-06-10T02:29:21.744Z,6.60
2019-06-10T02:34:27.723Z,6.70
2019-06-10T02:39:38.654Z,7.30
2019-06-10T02:44:44.562Z,7.30
2019-06-10T02:50:01.550Z,5.70
2019-06-10T02:54:59.715Z,6.50
2019-06-10T03:00:19.752Z,5.63
2019-06-10T03:05:17.592Z,6.00
2019-06-10T03:10:29.517Z,6.13
2019-06-10T03:15:32.051Z,5.90
2019-06-10T03:20:36.855Z,5.77
2019-06-10T03:25:42.364Z,6.97
2019-06-10T03:30:53.955Z,5.97
2019-06-10T03:35:55.086Z,6.50
2019-06-10T03:41:03.009Z,6.37
2019-06-10T03:46:13.570Z,6.03
2019-06-10T03:51:19.201Z,6.30
2019-06-10T03:56:28.182Z,6.60
2019-06-10T04:01:33.865Z,6.77
2019-06-10T04:06:39.303Z,6.50
2019-06-10T04:11:44.734Z,6.40
2019-06-10T04:16:52.396Z,7.70
2019-06-10T04:22:02.438Z,6.30
2019-06-10T04:27:09.281Z,6.30
2019-06-10T04:32:14.743Z,5.70
2019-06-10T04:37:20.384Z,6.30
2019-06-10T04:42:27.373Z,7.37
2019-06-10T04:47:33.380Z,6.90
2019-06-10T04:52:43.219Z,7.43
2019-06-10T04:57:49.208Z,6.90
2019-06-10T05:02:54.622Z,6.53
2019-06-10T05:08:02.514Z,6.40
2019-06-10T05:13:07.310Z,7.00
2019-06-10T05:18:13.169Z,6.80
2019-06-10T05:23:19.644Z,6.93
2019-06-10T05:28:27.490Z,6.13
2019-06-10T05:33:33.619Z,6.60
2019-06-10T05:38:39.085Z,6.13
2019-06-10T05:43:44.546Z,6.10
2019-06-10T05:48:52.726Z,6.57
2019-06-10T05:53:58.400Z,6.40
2019-06-10T05:59:04.449Z,6.37
2019-06-10T06:04:12.466Z,7.07
2019-06-10T06:09:17.445Z,6.70
2019-06-10T06:14:22.925Z,6.23
2019-06-10T06:19:28.398Z,6.30
2019-06-10T06:24:35.511Z,6.30
2019-06-10T06:29:43.150Z,6.20
2019-06-10T06:34:48.321Z,7.03
2019-06-10T06:39:53.762Z,6.90
2019-06-10T06:45:02.825Z,6.90
2019-06-10T06:50:09.311Z,6.80
2019-06-10T06:55:16.923Z,7.20
2019-06-10T07:00:48.077Z,6.87
2019-06-10T07:05:35.649Z,7.10
2019-06-10T07:10:43.553Z,7.27
2019-06-10T07:15:53.470Z,7.87
2019-06-10T07:20:59.051Z,7.00
2019-06-10T07:26:04.701Z,7.57
2019-06-10T07:31:20.870Z,7.47
2019-06-10T07:36:17.412Z,7.50
2019-06-10T07:41:27.253Z,7.13
2019-06-10T07:46:33.524Z,7.40
2019-06-10T07:51:41.364Z,6.90
2019-06-10T07:56:50.215Z,7.57
2019-06-10T08:01:55.306Z,7.37
2019-06-10T08:07:03.347Z,7.23
2019-06-10T08:12:12.722Z,7.90
2019-06-10T08:17:18.365Z,7.57
2019-06-10T08:22:35.127Z,7.30
2019-06-10T08:27:33.437Z,6.80
2019-06-10T08:32:38.453Z,7.80
2019-06-10T08:37:45.931Z,7.20
2019-06-10T08:42:53.555Z,7.57
2019-06-10T08:47:58.386Z,7.50
2019-06-10T08:53:13.495Z,7.97
2019-06-10T08:58:13.324Z,7.53
2019-06-10T09:03:18.845Z,7.30
2019-06-10T09:08:24.537Z,8.00
2019-06-10T09:13:31.257Z,7.27
2019-06-10T09:18:37.283Z,7.53
2019-06-10T09:23:47.126Z,8.27
2019-06-10T09:28:53.793Z,7.40
2019-06-10T09:33:57.589Z,8.33
2019-06-10T09:39:03.921Z,7.90
2019-06-10T09:44:12.640Z,7.33
2019-06-10T09:49:17.675Z,8.13
2019-06-10T09:54:23.344Z,7.80
2019-06-10T09:59:29.092Z,7.30
2019-06-10T10:04:37.451Z,8.47
2019-06-10T10:09:48.191Z,7.57
2019-06-10T10:14:55.901Z,8.13
2019-06-10T10:19:59.881Z,8.40
2019-06-10T10:25:06.082Z,8.57
2019-06-10T10:30:13.498Z,8.53
2019-06-10T10:35:24.261Z,8.10
2019-06-10T10:40:32.349Z,7.40
2019-06-10T10:45:37.883Z,8.47
2019-06-10T10:50:45.501Z,7.83
2019-06-10T10:55:51.849Z,8.17
2019-06-10T11:00:57.992Z,7.37
2019-06-10T11:06:04.252Z,7.87
2019-06-10T11:11:13.419Z,7.10
2019-06-10T11:16:22.497Z,7.70
2019-06-10T11:21:28.883Z,8.20
2019-06-10T11:26:34.432Z,8.70
2019-06-10T11:31:42.327Z,7.97
2019-06-10T11:36:47.979Z,7.70
2019-06-10T11:41:56.000Z,7.60
2019-06-10T11:47:03.223Z,7.80
2019-06-10T11:52:12.600Z,8.40
2019-06-10T11:57:18.657Z,8.53
2019-06-10T12:02:24.248Z,8.37
2019-06-10T12:07:29.786Z,8.23
2019-06-10T12:12:35.399Z,8.50
2019-06-10T12:17:50.062Z,9.03
2019-06-10T12:22:49.491Z,8.93
2019-06-10T12:28:01.253Z,8.73
2019-06-10T12:33:19.917Z,8.30
2019-06-10T12:38:22.491Z,8.50
2019-06-10T12:43:28.841Z,8.50
2019-06-10T12:48:38.006Z,8.47
2019-06-10T12:53:44.076Z,7.90
2019-06-10T12:58:49.993Z,8.60
2019-06-10T13:03:55.667Z,8.47
2019-06-10T13:09:04.349Z,7.93
2019-06-10T13:14:12.976Z,7.63
2019-06-10T13:19:23.239Z,7.40
2019-06-10T13:24:29.466Z,6.97
2019-06-10T13:29:35.226Z,8.10
2019-06-10T13:34:42.394Z,7.47
2019-06-10T13:39:48.056Z,7.40
2019-06-10T13:44:53.896Z,8.07
2019-06-10T13:50:03.355Z,7.50
2019-06-10T13:55:09.632Z,8.50
2019-06-10T14:00:16.184Z,7.97
2019-06-10T14:05:22.623Z,8.97
2019-06-10T14:10:28.450Z,8.60
2019-06-10T14:15:34.949Z,8.10
2019-06-10T14:20:43.069Z,8.30
2019-06-10T14:25:48.187Z,8.30
2019-06-10T14:30:55.794Z,8.03
2019-06-10T14:36:05.361Z,8.10
2019-06-10T14:41:12.297Z,8.20
2019-06-10T14:46:22.909Z,7.40
2019-06-10T14:51:32.469Z,7.63
2019-06-10T14:56:52.531Z,7.30
2019-06-10T15:01:47.606Z,7.50
2019-06-10T15:06:54.039Z,7.53
2019-06-10T15:12:02.830Z,8.10
2019-06-10T15:17:10.584Z,8.87
2019-06-10T15:22:17.154Z,8.40
2019-06-10T15:27:29.836Z,8.53
2019-06-10T15:32:34.493Z,7.87
2019-06-10T15:37:38.668Z,7.33
2019-06-10T15:42:44.827Z,8.20
2019-06-10T15:47:50.412Z,8.20
2019-06-10T15:52:56.439Z,8.70
2019-06-10T15:58:02.242Z,8.40
2019-06-10T16:03:07.811Z,8.23
2019-06-10T16:08:17.077Z,9.10
2019-06-10T16:13:25.874Z,8.20
2019-06-10T16:18:35.634Z,8.40
2019-06-10T16:23:43.200Z,8.63
2019-06-10T16:28:49.155Z,6.97
2019-06-10T16:33:55.092Z,6.93
2019-06-10T16:39:07.089Z,6.53
2019-06-10T16:44:15.792Z,6.30
2019-06-10T16:49:21.915Z,5.53
2019-06-10T16:54:27.634Z,6.70
2019-06-10T16:59:33.345Z,5.87
2019-06-10T17:04:39.310Z,6.10
2019-06-10T17:09:46.389Z,6.80
2019-06-10T17:15:00.290Z,6.60
2019-06-10T17:20:08.533Z,7.67
2019-06-10T17:25:17.621Z,7.60
2019-06-10T17:30:30.010Z,5.93
2019-06-10T17:35:40.260Z,6.13
2019-06-10T17:40:52.125Z,7.03
2019-06-10T17:45:59.907Z,5.80
2019-06-10T17:51:07.989Z,8.50
2019-06-10T17:56:14.979Z,6.37
2019-06-10T18:01:22.559Z,5.80
2019-06-10T18:06:34.352Z,5.90
2019-06-10T18:11:39.562Z,6.00
2019-06-10T18:16:48.183Z,6.27
2019-06-10T18:21:56.951Z,6.43
2019-06-10T18:27:02.736Z,6.83
2019-06-10T18:32:12.439Z,6.47
2019-06-10T18:37:18.760Z,6.90
2019-06-10T18:42:27.071Z,6.20
2019-06-10T18:47:35.706Z,6.10
2019-06-10T18:52:43.306Z,5.77
2019-06-10T18:57:52.885Z,5.80
2019-06-10T19:03:10.486Z,7.23
2019-06-10T19:08:08.605Z,5.90
2019-06-10T19:13:17.014Z,7.03
2019-06-10T19:18:23.446Z,7.07
2019-06-10T19:23:36.298Z,6.30
2019-06-10T19:28:45.275Z,6.33
2019-06-10T19:33:51.959Z,7.90
2019-06-10T19:39:02.339Z,7.50
2019-06-10T19:44:13.899Z,7.30
2019-06-10T19:49:21.330Z,7.40
2019-06-10T19:54:27.350Z,7.13
2019-06-10T19:59:50.398Z,6.80
2019-06-10T20:04:43.737Z,7.30
2019-06-10T20:09:52.123Z,7.20
2019-06-10T20:15:02.102Z,7.93
2019-06-10T20:20:08.730Z,6.93
2019-06-10T20:25:15.654Z,5.67
2019-06-10T20:30:28.298Z,6.17
2019-06-10T20:35:32.747Z,5.53
2019-06-10T20:40:42.794Z,5.10
2019-06-10T20:45:47.985Z,5.40
2019-06-10T20:50:53.621Z,5.63
2019-06-10T20:55:59.557Z,5.90
2019-06-10T21:01:05.669Z,5.30
2019-06-10T21:06:13.729Z,4.60
2019-06-10T21:11:23.123Z,4.67
2019-06-10T21:16:28.940Z,5.20
2019-06-10T21:21:34.813Z,4.73
2019-06-10T21:26:43.326Z,5.93
2019-06-10T21:31:49.918Z,5.80
2019-06-10T21:36:55.333Z,5.23
2019-06-10T21:42:02.260Z,4.80
2019-06-10T21:47:09.801Z,5.63
2019-06-10T21:52:16.718Z,5.30
2019-06-10T21:57:22.214Z,5.33
2019-06-10T22:02:27.783Z,5.23
2019-06-10T22:07:33.570Z,4.87
2019-06-10T22:12:42.201Z,5.17
2019-06-10T22:17:50.490Z,4.43
2019-06-10T22:22:56.526Z,5.00
2019-06-10T22:28:02.710Z,4.83
2019-06-10T22:33:08.562Z,4.60
2019-06-10T22:38:14.296Z,4.43
2019-06-10T22:43:19.744Z,5.03
2019-06-10T22:48:25.285Z,5.30
2019-06-10T22:53:33.382Z,4.30
2019-06-10T22:58:40.043Z,4.20
2019-06-10T23:03:45.543Z,4.37
2019-06-10T23:08:53.482Z,4.60
2019-06-10T23:13:59.584Z,3.93
2019-06-10T23:19:05.342Z,4.80
2019-06-10T23:24:13.234Z,5.20
2019-06-10T23:29:18.066Z,4.80
2019-06-10T23:34:23.528Z,5.00
2019-06-10T23:39:28.938Z,4.90
2019-06-10T23:44:34.480Z,6.70
2019-06-10T23:49:39.899Z,6.07
2019-06-10T23:54:45.327Z,6.30
2019-06-10T23:59:53.761Z,5.33
